PILOTS ONLINE: 272    ATC ONLINE: 65

KFOE

Forbes Field

Location

IATA FOE
City Topeka
Country  United States
Latitude 38° 57' 3" N
Longitude 95° 39' 48" W
Elevation 1078 ft
Type Medium Airport

Map

Weather

METAR
2014/10/23 00:53
KFOE 230053Z 14008KT 10SM CLR 20/14 A3007 RMK AO2 SLP178 T02000144
TAF
2014/10/22 18:39
TAF KFOE 221736Z 2218/2318 16012KT P6SM FEW040 
     FM230200 18008KT P6SM VCSH BKN035 
      TEMPO 2304/2308 5SM -SHRA BR BKN025 
     FM231100 21006KT P6SM BKN025

Runways

03/21 7000 ft / 150 ft
13/31 12802 ft / 200 ft

Outbound flights

Callsign Flying to Pilot ATD/STD ETA Aircraft

Inbound flights

Callsign Flying from Pilot ATD ETA Aircraft